createdAt,value
2023-02-16T00:00:15.129Z,11.55
2023-02-16T00:03:23.620Z,11.25
2023-02-16T00:06:27.831Z,10.73
2023-02-16T00:09:30.635Z,11.60
2023-02-16T00:12:50.872Z,10.80
2023-02-16T00:15:53.725Z,11.17
2023-02-16T00:18:57.924Z,11.15
2023-02-16T00:22:01.824Z,11.07
2023-02-16T00:25:04.837Z,11.30
2023-02-16T00:28:14.432Z,11.27
2023-02-16T00:31:21.455Z,10.40
2023-02-16T00:34:35.264Z,10.82
2023-02-16T00:37:38.203Z,10.63
2023-02-16T00:40:43.046Z,10.60
2023-02-16T00:43:46.722Z,11.35
2023-02-16T00:46:49.720Z,10.05
2023-02-16T00:49:55.551Z,10.52
2023-02-16T00:52:59.290Z,10.90
2023-02-16T00:56:02.178Z,10.55
2023-02-16T00:59:08.540Z,9.98
2023-02-16T01:02:13.902Z,10.55
2023-02-16T01:05:18.162Z,10.43
2023-02-16T01:08:38.656Z,10.18
2023-02-16T01:11:41.622Z,10.60
2023-02-16T01:14:47.099Z,10.38
2023-02-16T01:17:50.001Z,10.50
2023-02-16T01:20:54.530Z,10.73
2023-02-16T01:23:57.380Z,10.02
2023-02-16T01:27:00.339Z,10.75
2023-02-16T01:30:03.234Z,10.82
2023-02-16T01:33:06.103Z,10.10
2023-02-16T01:36:22.973Z,10.18
2023-02-16T01:39:25.882Z,9.95
2023-02-16T01:42:36.987Z,10.35
2023-02-16T01:45:42.833Z,10.68
2023-02-16T01:48:45.695Z,10.60
2023-02-16T01:51:56.806Z,10.73
2023-02-16T01:55:06.271Z,10.25
2023-02-16T01:58:19.912Z,10.50
2023-02-16T02:01:40.462Z,10.18
2023-02-16T02:05:05.347Z,11.02
2023-02-16T02:08:17.613Z,10.93
2023-02-16T02:11:25.786Z,9.98
2023-02-16T02:14:37.923Z,10.00
2023-02-16T02:17:41.117Z,10.57
2023-02-16T02:21:16.089Z,9.50
2023-02-16T02:24:53.439Z,10.43
2023-02-16T02:28:04.522Z,9.90
2023-02-16T02:31:12.921Z,10.15
2023-02-16T02:34:26.022Z,10.40
2023-02-16T02:37:41.110Z,10.43
2023-02-16T02:40:55.816Z,9.45
2023-02-16T02:44:09.511Z,10.10
2023-02-16T02:47:12.370Z,9.63
2023-02-16T02:50:39.935Z,9.50
2023-02-16T02:53:49.191Z,9.77
2023-02-16T02:57:16.524Z,9.60
2023-02-16T03:00:44.265Z,8.93
2023-02-16T03:03:50.702Z,10.15
2023-02-16T03:06:57.137Z,9.65
2023-02-16T03:10:20.231Z,9.48
2023-02-16T03:13:25.239Z,9.95
2023-02-16T03:16:35.163Z,9.43
2023-02-16T03:19:57.532Z,9.13
2023-02-16T03:23:19.948Z,9.07
2023-02-16T03:26:41.611Z,8.73
2023-02-16T03:29:47.082Z,9.57
2023-02-16T03:32:52.048Z,9.45
2023-02-16T03:35:55.395Z,9.35
2023-02-16T03:38:59.536Z,9.15
2023-02-16T03:42:03.065Z,9.43
2023-02-16T03:45:06.440Z,8.88
2023-02-16T03:48:10.809Z,9.35
2023-02-16T03:51:13.620Z,8.95
2023-02-16T03:54:16.485Z,8.85
2023-02-16T03:57:19.404Z,9.10
2023-02-16T04:00:22.834Z,9.25
2023-02-16T04:03:27.712Z,8.95
2023-02-16T04:06:30.508Z,8.68
2023-02-16T04:09:33.318Z,8.98
2023-02-16T04:12:39.107Z,9.07
2023-02-16T04:15:42.336Z,8.32
2023-02-16T04:18:46.741Z,8.48
2023-02-16T04:21:49.550Z,9.02
2023-02-16T04:24:52.344Z,8.50
2023-02-16T04:27:55.816Z,8.75
2023-02-16T04:30:58.661Z,8.50
2023-02-16T04:34:02.971Z,8.43
2023-02-16T04:37:05.844Z,8.52
2023-02-16T04:40:11.029Z,8.40
2023-02-16T04:43:13.837Z,8.82
2023-02-16T04:46:16.757Z,9.05
2023-02-16T04:49:20.943Z,8.35
2023-02-16T04:52:23.793Z,9.07
2023-02-16T04:55:26.579Z,8.30
2023-02-16T04:58:29.590Z,8.13
2023-02-16T05:01:32.492Z,7.90
2023-02-16T05:04:36.739Z,7.88
2023-02-16T05:07:39.627Z,8.90
2023-02-16T05:10:43.762Z,7.80
2023-02-16T05:14:04.349Z,8.43
2023-02-16T05:17:07.596Z,7.50
2023-02-16T05:20:13.101Z,7.53
2023-02-16T05:23:16.258Z,7.95
2023-02-16T05:26:19.142Z,7.35
2023-02-16T05:29:22.092Z,8.45
2023-02-16T05:32:25.176Z,8.13
2023-02-16T05:35:29.479Z,7.78
2023-02-16T05:38:32.352Z,7.72
2023-02-16T05:41:35.283Z,7.68
2023-02-16T05:44:38.693Z,7.85
2023-02-16T05:47:41.525Z,7.30
2023-02-16T05:50:45.729Z,7.60
2023-02-16T05:53:48.982Z,7.38
2023-02-16T05:56:53.763Z,8.55
2023-02-16T05:59:56.816Z,7.70
2023-02-16T06:02:59.745Z,7.95
2023-02-16T06:06:05.116Z,7.72
2023-02-16T06:09:09.256Z,8.40
2023-02-16T06:12:12.102Z,7.85
2023-02-16T06:15:14.948Z,7.55
2023-02-16T06:18:18.268Z,7.40
2023-02-16T06:21:22.954Z,8.32
2023-02-16T06:24:25.938Z,7.60
2023-02-16T06:27:29.406Z,7.43
2023-02-16T06:30:33.029Z,7.43
2023-02-16T06:33:36.070Z,7.50
2023-02-16T06:36:42.639Z,7.22
2023-02-16T06:39:46.107Z,7.38
2023-02-16T06:42:48.998Z,8.23
2023-02-16T06:45:51.939Z,7.55
2023-02-16T06:48:55.455Z,7.47
2023-02-16T06:51:59.840Z,7.93
2023-02-16T06:55:02.777Z,8.50
2023-02-16T06:58:06.064Z,7.00
2023-02-16T07:01:09.537Z,8.07
2023-02-16T07:04:12.416Z,8.30
2023-02-16T07:07:16.625Z,8.57
2023-02-16T07:10:20.019Z,9.23
2023-02-16T07:13:22.939Z,8.63
2023-02-16T07:16:25.858Z,8.60
2023-02-16T07:19:32.325Z,9.10
2023-02-16T07:22:36.520Z,10.43
2023-02-16T07:25:39.376Z,11.25
2023-02-16T07:28:42.261Z,9.35
2023-02-16T07:31:45.154Z,9.40
2023-02-16T07:34:48.180Z,9.52
2023-02-16T07:37:52.420Z,9.07
2023-02-16T07:40:55.213Z,9.32
2023-02-16T07:43:58.056Z,9.48
2023-02-16T07:47:01.141Z,9.35
2023-02-16T07:50:04.003Z,9.50
2023-02-16T07:53:09.133Z,9.32
2023-02-16T07:56:20.731Z,9.73
2023-02-16T07:59:23.637Z,8.85
2023-02-16T08:02:27.367Z,8.75
2023-02-16T08:05:30.705Z,9.07
2023-02-16T08:08:34.996Z,8.48
2023-02-16T08:11:37.791Z,8.52
2023-02-16T08:14:41.357Z,9.10
2023-02-16T08:17:44.467Z,8.95
2023-02-16T08:21:03.184Z,9.00
2023-02-16T08:24:09.539Z,9.63
2023-02-16T08:27:12.585Z,8.95
2023-02-16T08:30:18.357Z,8.70
2023-02-16T08:33:21.374Z,8.98
2023-02-16T08:36:26.408Z,9.20
2023-02-16T08:39:32.850Z,8.48
2023-02-16T08:42:35.788Z,8.48
2023-02-16T08:45:38.646Z,8.65
2023-02-16T08:48:41.499Z,9.07
2023-02-16T08:51:46.409Z,8.18
2023-02-16T08:54:50.846Z,8.80
2023-02-16T08:57:53.715Z,8.13
2023-02-16T09:00:57.225Z,8.43
2023-02-16T09:04:00.106Z,7.85
2023-02-16T09:07:03.016Z,7.93
2023-02-16T09:10:08.564Z,7.90
2023-02-16T09:13:14.205Z,7.43
2023-02-16T09:16:19.119Z,8.68
2023-02-16T09:19:22.884Z,7.88
2023-02-16T09:22:25.726Z,7.50
2023-02-16T09:25:29.898Z,8.00
2023-02-16T09:28:32.878Z,7.97
2023-02-16T09:31:39.598Z,7.63
2023-02-16T09:34:44.599Z,8.18
2023-02-16T09:37:47.417Z,7.88
2023-02-16T09:40:51.726Z,8.18
2023-02-16T09:43:59.772Z,8.10
2023-02-16T09:47:05.857Z,7.43
2023-02-16T09:50:27.695Z,7.70
2023-02-16T09:53:45.324Z,8.38
2023-02-16T09:56:57.538Z,7.35
2023-02-16T10:00:08.656Z,8.05
2023-02-16T10:03:23.754Z,7.38
2023-02-16T10:06:44.023Z,7.75
2023-02-16T10:09:51.423Z,7.82
2023-02-16T10:12:59.518Z,7.38
2023-02-16T10:16:07.008Z,7.03
2023-02-16T10:19:20.636Z,7.18
2023-02-16T10:22:32.055Z,7.60
2023-02-16T10:25:42.148Z,7.63
2023-02-16T10:28:49.393Z,7.35
2023-02-16T10:32:03.620Z,7.45
2023-02-16T10:35:15.214Z,7.45
2023-02-16T10:38:24.045Z,7.00
2023-02-16T10:41:33.955Z,7.20
2023-02-16T10:44:42.854Z,7.05
2023-02-16T10:47:47.186Z,6.93
2023-02-16T10:50:58.702Z,6.55
2023-02-16T10:54:05.568Z,6.78
2023-02-16T10:57:21.130Z,7.18
2023-02-16T11:00:38.779Z,7.10
2023-02-16T11:03:47.731Z,6.72
2023-02-16T11:07:04.996Z,7.38
2023-02-16T11:10:22.288Z,6.72
2023-02-16T11:13:29.444Z,8.10
2023-02-16T11:16:35.583Z,6.50
2023-02-16T11:19:40.044Z,7.55
2023-02-16T11:22:42.975Z,6.70
2023-02-16T11:25:55.378Z,7.20
2023-02-16T11:29:14.596Z,7.00
2023-02-16T11:32:21.461Z,7.28
2023-02-16T11:35:24.400Z,6.88
2023-02-16T11:38:30.616Z,6.32
2023-02-16T11:41:36.713Z,6.50
2023-02-16T11:44:44.530Z,6.05
2023-02-16T11:47:54.727Z,7.03
2023-02-16T11:51:00.207Z,6.40
2023-02-16T11:54:09.671Z,6.75
2023-02-16T11:57:15.692Z,6.63
2023-02-16T12:00:21.963Z,6.80
2023-02-16T12:03:44.634Z,6.13
2023-02-16T12:07:00.570Z,6.68
2023-02-16T12:10:09.756Z,6.57
2023-02-16T12:13:23.036Z,6.70
2023-02-16T12:16:35.238Z,6.82
2023-02-16T12:19:42.814Z,6.30
2023-02-16T12:22:49.256Z,6.25
2023-02-16T12:26:05.821Z,6.28
2023-02-16T12:29:20.670Z,5.90
2023-02-16T12:32:44.544Z,6.43
2023-02-16T12:36:01.969Z,6.78
2023-02-16T12:39:17.914Z,5.97
2023-02-16T12:42:42.943Z,6.07
2023-02-16T12:45:47.492Z,6.15
2023-02-16T12:48:55.961Z,6.10
2023-02-16T12:52:07.173Z,6.38
2023-02-16T12:55:22.049Z,6.28
2023-02-16T12:58:29.913Z,5.95
2023-02-16T13:01:36.718Z,6.20
2023-02-16T13:04:43.708Z,6.05
2023-02-16T13:07:51.861Z,5.68
2023-02-16T13:11:01.429Z,6.00
2023-02-16T13:14:12.075Z,5.85
2023-02-16T13:17:19.630Z,6.38
2023-02-16T13:20:24.668Z,5.85
2023-02-16T13:23:42.655Z,5.65
2023-02-16T13:27:01.525Z,6.32
2023-02-16T13:30:37.126Z,5.70
2023-02-16T13:34:06.338Z,5.55
2023-02-16T13:37:35.553Z,5.80
2023-02-16T13:41:11.723Z,6.32
2023-02-16T13:44:17.862Z,5.63
2023-02-16T13:47:26.857Z,6.60
2023-02-16T13:50:32.820Z,6.90
2023-02-16T13:53:39.415Z,6.55
2023-02-16T13:56:43.632Z,6.22
2023-02-16T13:59:55.942Z,5.32
2023-02-16T14:03:02.112Z,6.47
2023-02-16T14:06:32.272Z,5.45
2023-02-16T14:09:50.835Z,5.43
2023-02-16T14:12:55.152Z,5.63
2023-02-16T14:16:02.492Z,5.68
2023-02-16T14:19:18.773Z,5.95
2023-02-16T14:22:25.171Z,5.93
2023-02-16T14:25:39.542Z,6.78
2023-02-16T14:29:10.175Z,5.57
2023-02-16T14:32:24.394Z,5.90
2023-02-16T14:35:31.006Z,5.97
2023-02-16T14:38:36.877Z,5.68
2023-02-16T14:41:41.586Z,5.90
2023-02-16T14:45:02.863Z,5.60
2023-02-16T14:48:19.298Z,5.85
2023-02-16T14:51:52.459Z,5.57
2023-02-16T14:55:24.110Z,6.43
2023-02-16T14:58:32.740Z,5.40
2023-02-16T15:01:42.629Z,5.38
2023-02-16T15:04:46.191Z,5.68
2023-02-16T15:07:52.368Z,5.88
2023-02-16T15:10:55.363Z,5.57
2023-02-16T15:14:04.779Z,5.07
2023-02-16T15:17:10.113Z,5.47
2023-02-16T15:20:23.200Z,6.40
2023-02-16T15:23:28.239Z,5.32
2023-02-16T15:26:33.182Z,5.90
2023-02-16T15:29:36.352Z,5.13
2023-02-16T15:32:41.185Z,5.40
2023-02-16T15:35:46.739Z,5.70
2023-02-16T15:38:57.219Z,5.30
2023-02-16T15:42:19.839Z,5.43
2023-02-16T15:45:28.425Z,5.10
2023-02-16T15:48:34.593Z,4.80
2023-02-16T15:51:38.379Z,5.57
2023-02-16T15:54:42.275Z,5.43
2023-02-16T15:57:45.527Z,5.28
2023-02-16T16:00:48.803Z,5.35
2023-02-16T16:03:53.847Z,5.30
2023-02-16T16:06:57.436Z,5.35
2023-02-16T16:10:01.372Z,5.60
2023-02-16T16:13:06.618Z,5.47
2023-02-16T16:16:10.095Z,5.05
2023-02-16T16:19:19.426Z,5.97
2023-02-16T16:22:42.899Z,4.78
2023-02-16T16:25:48.226Z,5.68
2023-02-16T16:28:51.592Z,5.15
2023-02-16T16:31:55.007Z,5.50
2023-02-16T16:35:01.071Z,5.20
2023-02-16T16:38:05.199Z,5.15
2023-02-16T16:41:18.158Z,5.35
2023-02-16T16:44:34.500Z,5.60
2023-02-16T16:47:40.020Z,5.20
2023-02-16T16:50:44.458Z,5.18
2023-02-16T16:53:55.402Z,5.35
2023-02-16T16:56:58.363Z,5.70
2023-02-16T17:00:01.266Z,5.45
2023-02-16T17:03:05.886Z,6.03
2023-02-16T17:06:10.412Z,6.18
2023-02-16T17:09:15.809Z,5.90
2023-02-16T17:12:19.531Z,6.10
2023-02-16T17:15:30.574Z,5.97
2023-02-16T17:18:33.717Z,6.07
2023-02-16T17:21:37.942Z,6.15
2023-02-16T17:24:40.877Z,5.65
2023-02-16T17:27:43.767Z,5.90
2023-02-16T17:30:47.026Z,5.53
2023-02-16T17:33:49.871Z,5.68
2023-02-16T17:36:54.101Z,5.60
2023-02-16T17:39:56.911Z,5.90
2023-02-16T17:42:59.854Z,6.55
2023-02-16T17:46:06.369Z,5.93
2023-02-16T17:49:11.931Z,5.95
2023-02-16T17:52:16.193Z,6.22
2023-02-16T17:55:19.126Z,6.22
2023-02-16T17:58:23.506Z,5.80
2023-02-16T18:01:26.568Z,6.13
2023-02-16T18:04:29.775Z,6.82
2023-02-16T18:07:34.038Z,7.00
2023-02-16T18:10:39.957Z,7.53
2023-02-16T18:13:42.891Z,7.10
2023-02-16T18:16:45.792Z,7.35
2023-02-16T18:19:48.715Z,7.38
2023-02-16T18:22:53.030Z,7.60
2023-02-16T18:25:55.944Z,8.55
2023-02-16T18:28:58.895Z,8.25
2023-02-16T18:32:03.107Z,8.27
2023-02-16T18:35:06.663Z,8.60
2023-02-16T18:38:10.892Z,9.07
2023-02-16T18:41:13.901Z,8.88
2023-02-16T18:44:17.044Z,8.82
2023-02-16T18:47:19.991Z,9.40
2023-02-16T18:50:22.848Z,9.45
2023-02-16T18:53:27.134Z,9.38
2023-02-16T18:56:29.970Z,8.95
2023-02-16T18:59:32.879Z,9.57
2023-02-16T19:02:36.746Z,9.80
2023-02-16T19:05:39.728Z,9.70
2023-02-16T19:08:44.033Z,10.18
2023-02-16T19:11:47.004Z,9.63
2023-02-16T19:14:49.839Z,10.02
2023-02-16T19:17:53.104Z,10.90
2023-02-16T19:20:56.329Z,10.95
2023-02-16T19:24:00.918Z,11.15
2023-02-16T19:27:04.088Z,10.88
2023-02-16T19:30:08.613Z,11.20
2023-02-16T19:33:11.504Z,11.70
2023-02-16T19:36:15.782Z,10.93
2023-02-16T19:39:20.039Z,11.35
2023-02-16T19:42:22.933Z,11.35
2023-02-16T19:45:25.869Z,11.32
2023-02-16T19:48:29.215Z,11.38
2023-02-16T19:51:32.175Z,11.85
2023-02-16T19:54:37.128Z,11.13
2023-02-16T19:57:39.978Z,12.48
2023-02-16T20:00:42.921Z,11.38
2023-02-16T20:03:46.524Z,12.10
2023-02-16T20:06:49.742Z,12.85
2023-02-16T20:09:54.080Z,12.05
2023-02-16T20:12:57.105Z,12.27
2023-02-16T20:16:02.382Z,11.52
2023-02-16T20:19:05.380Z,11.95
2023-02-16T20:22:08.501Z,12.07
2023-02-16T20:25:12.870Z,11.77
2023-02-16T20:28:15.779Z,12.35
2023-02-16T20:31:21.120Z,11.73
2023-02-16T20:34:26.088Z,13.38
2023-02-16T20:37:30.218Z,12.20
2023-02-16T20:40:34.451Z,12.73
2023-02-16T20:43:38.144Z,13.00
2023-02-16T20:46:41.847Z,12.77
2023-02-16T20:49:44.825Z,12.93
2023-02-16T20:52:48.159Z,12.75
2023-02-16T20:56:00.614Z,12.68
2023-02-16T20:59:04.583Z,12.10
2023-02-16T21:02:08.012Z,13.18
2023-02-16T21:05:11.436Z,13.43
2023-02-16T21:08:14.566Z,13.48
2023-02-16T21:11:19.394Z,12.85
2023-02-16T21:14:22.368Z,14.43
2023-02-16T21:17:25.333Z,13.77
2023-02-16T21:20:28.166Z,13.75
2023-02-16T21:23:31.231Z,13.25
2023-02-16T21:26:35.606Z,13.60
2023-02-16T21:29:39.304Z,13.52
2023-02-16T21:32:42.226Z,13.98
2023-02-16T21:35:45.218Z,13.68
2023-02-16T21:38:48.812Z,13.02
2023-02-16T21:41:52.065Z,12.48
2023-02-16T21:45:12.390Z,14.07
2023-02-16T21:48:33.167Z,14.38
2023-02-16T21:51:38.321Z,14.65
2023-02-16T21:54:58.843Z,14.30
2023-02-16T21:58:03.432Z,14.82
2023-02-16T22:01:06.462Z,14.30
2023-02-16T22:04:12.127Z,14.07
2023-02-16T22:07:15.166Z,14.82
2023-02-16T22:10:18.121Z,14.77
2023-02-16T22:13:22.578Z,15.20
2023-02-16T22:16:26.372Z,14.50
2023-02-16T22:19:29.184Z,14.35
2023-02-16T22:22:32.020Z,15.48
2023-02-16T22:25:34.821Z,15.40
2023-02-16T22:28:39.097Z,14.73
2023-02-16T22:31:45.527Z,15.25
2023-02-16T22:34:48.446Z,14.27
2023-02-16T22:37:51.255Z,13.68
2023-02-16T22:40:54.119Z,12.95
2023-02-16T22:44:00.057Z,14.05
2023-02-16T22:47:02.909Z,13.35
2023-02-16T22:50:07.163Z,14.18
2023-02-16T22:53:09.969Z,13.50
2023-02-16T22:56:15.359Z,13.60
2023-02-16T22:59:19.654Z,13.13
2023-02-16T23:02:22.464Z,14.50
2023-02-16T23:05:25.356Z,14.30
2023-02-16T23:08:28.220Z,13.35
2023-02-16T23:11:31.580Z,13.45
2023-02-16T23:14:39.111Z,13.20
2023-02-16T23:17:41.968Z,12.63
2023-02-16T23:20:44.782Z,12.73
2023-02-16T23:23:49.191Z,12.27
2023-02-16T23:26:52.719Z,12.55
2023-02-16T23:29:57.071Z,11.88
2023-02-16T23:32:59.919Z,13.02
2023-02-16T23:36:03.204Z,12.63
2023-02-16T23:39:08.366Z,12.90
2023-02-16T23:42:11.262Z,12.25
2023-02-16T23:45:15.898Z,11.98
2023-02-16T23:48:18.735Z,11.63
2023-02-16T23:51:21.570Z,11.13
2023-02-16T23:54:24.323Z,11.90
2023-02-16T23:57:27.126Z,11.15
